Time;durP1;ratioP1;P1;durP2;ratioP2;P2;SDS_P1;SDS_P2;PMS_P1;PMS_P2;Temp;Humidity;BMP_temperature;BMP_pressure;BME280_temperature;BME280_humidity;BME280_pressure;Samples;Min_cycle;Max_cycle;Signal;HPM_P1;HPM_P2
2022/04/27 00:01:41;;;;;;;72.57;35.15;;;;;;;3.74;72.12;98734.44;5091309;28;20015;-69
2022/04/27 00:04:07;;;;;;;85.78;40.83;;;;;;;3.76;72.74;98739.59;5089594;28;20023;-69
2022/04/27 00:06:32;;;;;;;78.22;40.03;;;;;;;3.76;72.66;98742.31;5091075;28;20469;-69
2022/04/27 00:08:58;;;;;;;89.97;42.47;;;;;;;3.76;72.50;98743.16;5089548;28;20852;-69
2022/04/27 00:11:23;;;;;;;89.50;44.55;;;;;;;3.76;72.41;98740.44;5091421;28;20286;-69
2022/04/27 00:13:49;;;;;;;100.70;45.75;;;;;;;3.76;72.29;98747.75;5091025;28;20048;-69
2022/04/27 00:16:14;;;;;;;86.72;42.38;;;;;;;3.77;73.09;98744.78;5092038;28;20442;-70
2022/04/27 00:18:40;;;;;;;112.47;49.90;;;;;;;3.77;72.63;98746.66;5090605;28;20453;-69
2022/04/27 00:21:05;;;;;;;107.25;48.60;;;;;;;3.79;73.00;98752.69;5091454;28;20103;-69
2022/04/27 00:23:32;;;;;;;110.82;48.97;;;;;;;3.79;72.93;98756.22;5090346;28;20031;-69
2022/04/27 00:25:59;;;;;;;120.80;50.03;;;;;;;3.80;73.41;98748.91;5091651;28;20107;-69
2022/04/27 00:28:24;;;;;;;123.07;48.63;;;;;;;3.79;72.79;98756.22;5091106;28;20113;-69
2022/04/27 00:30:50;;;;;;;114.47;47.70;;;;;;;3.79;73.25;98755.38;5091437;28;20028;-69
2022/04/27 00:33:15;;;;;;;107.40;46.88;;;;;;;3.77;73.30;98752.94;5091198;28;20026;-69
2022/04/27 00:35:41;;;;;;;118.25;50.03;;;;;;;3.73;73.24;98751.78;5089699;28;20032;-68
2022/04/27 00:38:07;;;;;;;100.57;43.40;;;;;;;3.69;72.89;98762.28;5091159;28;20416;-69
2022/04/27 00:40:32;;;;;;;98.47;41.55;;;;;;;3.67;73.20;98753.56;5091205;28;20027;-69
2022/04/27 00:42:58;;;;;;;96.93;43.13;;;;;;;3.63;72.87;98755.13;5091353;28;20032;-69
2022/04/27 00:45:24;;;;;;;95.10;41.28;;;;;;;3.61;72.96;98757.25;5091355;28;20044;-69
2022/04/27 00:47:49;;;;;;;88.13;40.38;;;;;;;3.58;73.50;98755.84;5089432;28;20127;-69
2022/04/27 00:50:15;;;;;;;92.43;42.10;;;;;;;3.56;72.49;98755.25;5090957;28;20035;-69
2022/04/27 00:52:40;;;;;;;83.70;39.47;;;;;;;3.55;73.04;98750.91;5091012;28;20024;-70
2022/04/27 00:55:06;;;;;;;82.93;39.47;;;;;;;3.51;72.40;98755.16;5090425;28;20119;-70
2022/04/27 00:57:33;;;;;;;75.75;37.05;;;;;;;3.48;72.99;98746.69;5089867;28;20028;-69
2022/04/27 00:59:59;;;;;;;70.50;36.10;;;;;;;3.45;72.94;98745.31;5091241;28;20023;-70
2022/04/27 01:02:24;;;;;;;78.55;37.30;;;;;;;3.45;73.34;98752.59;5090799;28;20092;-69
2022/04/27 01:04:50;;;;;;;74.15;37.13;;;;;;;3.46;73.34;98746.13;5091154;28;20106;-70
2022/04/27 01:07:15;;;;;;;74.80;37.35;;;;;;;3.48;73.75;98750.22;5091239;28;20028;-69
2022/04/27 01:09:41;;;;;;;69.63;35.58;;;;;;;3.50;73.46;98744.56;5091830;28;20081;-70
2022/04/27 01:12:07;;;;;;;71.70;34.88;;;;;;;3.50;73.94;98739.16;5091780;28;20028;-70
2022/04/27 01:14:43;;;;;;;71.35;35.85;;;;;;;3.52;74.16;98745.16;5091014;28;20108;-69
2022/04/27 01:17:09;;;;;;;68.40;35.97;;;;;;;3.48;73.77;98750.22;5090095;28;20040;-70
2022/04/27 01:19:34;;;;;;;75.22;37.85;;;;;;;3.46;73.47;98749.66;5089190;28;20055;-70
2022/04/27 01:22:02;;;;;;;72.63;35.75;;;;;;;3.43;73.09;98761.00;5090477;28;20024;-70
2022/04/27 01:24:27;;;;;;;73.40;36.72;;;;;;;3.41;73.90;98757.72;5089961;28;20016;-70
2022/04/27 01:26:54;;;;;;;71.22;36.13;;;;;;;3.38;73.57;98759.00;5090255;28;20024;-70
2022/04/27 01:29:22;;;;;;;79.97;42.33;;;;;;;3.43;74.18;98753.69;5089963;28;20027;-69
2022/04/27 01:31:48;;;;;;;72.22;36.20;;;;;;;3.47;74.52;98762.13;5089488;28;20083;-69
2022/04/27 01:34:13;;;;;;;73.13;37.10;;;;;;;3.51;73.84;98754.34;5090001;28;20089;-70
2022/04/27 01:36:39;;;;;;;71.82;37.25;;;;;;;3.48;74.46;98752.94;5089116;28;20027;-69
2022/04/27 01:39:06;;;;;;;65.95;35.33;;;;;;;3.48;73.73;98754.84;5089599;28;20110;-70
2022/04/27 01:41:32;;;;;;;75.65;36.20;;;;;;;3.47;74.43;98762.13;5089991;28;20487;-69
2022/04/27 01:43:58;;;;;;;70.55;34.63;;;;;;;3.45;74.53;98755.31;5090008;28;20099;-70
2022/04/27 01:46:24;;;;;;;66.05;35.15;;;;;;;3.46;74.14;98756.97;5090011;28;20036;-69
2022/04/27 01:48:52;;;;;;;65.13;33.40;;;;;;;3.45;73.95;98761.59;5089214;28;20012;-70
2022/04/27 01:51:18;;;;;;;68.05;34.63;;;;;;;3.45;74.12;98766.16;5090312;28;20024;-69
2022/04/27 01:56:31;;;;;;;58.83;30.98;;;;;;;3.43;74.53;98766.41;5090427;28;20105;-69
2022/04/27 01:58:57;;;;;;;61.08;32.38;;;;;;;3.40;74.46;98766.91;5089590;28;20020;-69
2022/04/27 02:01:24;;;;;;;58.25;30.02;;;;;;;3.38;73.94;98764.41;5089403;28;20028;-70
2022/04/27 02:03:51;;;;;;;60.25;32.88;;;;;;;3.35;73.78;98766.81;5089131;28;20063;-69
2022/04/27 02:06:19;;;;;;;65.68;32.60;;;;;;;3.33;74.46;98758.88;5089577;28;20020;-69
2022/04/27 02:08:45;;;;;;;60.33;31.75;;;;;;;3.33;74.49;98761.59;5089117;28;20024;-69
2022/04/27 02:11:11;;;;;;;67.78;33.80;;;;;;;3.29;73.73;98765.84;5089800;28;20077;-69
2022/04/27 02:13:37;;;;;;;79.53;38.25;;;;;;;3.28;74.55;98764.22;5089516;28;20054;-69
2022/04/27 02:16:02;;;;;;;102.10;45.72;;;;;;;3.25;74.63;98762.81;5090455;28;20099;-70
2022/04/27 02:18:28;;;;;;;91.68;39.80;;;;;;;3.19;74.25;98763.78;5090087;28;20107;-70
2022/04/27 02:20:53;;;;;;;89.32;38.30;;;;;;;3.17;73.93;98760.47;5090318;28;20535;-69
2022/04/27 02:23:20;;;;;;;88.50;38.08;;;;;;;3.15;74.11;98765.31;5089940;28;20454;-69
2022/04/27 02:25:46;;;;;;;97.07;42.10;;;;;;;3.14;74.75;98771.78;5090461;28;20023;-69
2022/04/27 02:28:11;;;;;;;85.95;39.65;;;;;;;3.15;74.48;98770.75;5089682;28;20394;-70
2022/04/27 02:30:37;;;;;;;77.18;35.38;;;;;;;3.14;73.97;98769.09;5090094;28;20020;-69
2022/04/27 02:33:02;;;;;;;82.30;37.70;;;;;;;3.14;74.37;98769.09;5089649;28;20023;-69
2022/04/27 02:35:28;;;;;;;80.07;36.83;;;;;;;3.11;74.38;98770.41;5090355;28;20085;-70
2022/04/27 02:37:53;;;;;;;78.18;35.28;;;;;;;3.08;74.04;98767.31;5089403;28;20020;-70
2022/04/27 02:40:19;;;;;;;73.82;34.88;;;;;;;3.05;73.90;98765.94;5089898;28;20058;-70
2022/04/27 02:42:44;;;;;;;67.80;33.60;;;;;;;3.04;74.28;98775.13;5089957;28;20020;-70
2022/04/27 02:45:10;;;;;;;69.30;33.00;;;;;;;3.03;74.84;98772.66;5089591;28;20127;-70
2022/04/27 02:47:35;;;;;;;64.20;31.38;;;;;;;3.02;74.42;98769.13;5089684;28;20075;-69
2022/04/27 02:52:48;;;;;;;65.60;32.88;;;;;;;2.98;74.38;98771.50;5089821;28;20105;-70
2022/04/27 02:55:13;;;;;;;69.75;31.70;;;;;;;2.94;74.96;98775.75;5089382;28;20401;-70
2022/04/27 02:57:38;;;;;;;62.47;31.58;;;;;;;2.94;74.27;98775.75;5089471;28;20098;-70
2022/04/27 03:00:05;;;;;;;66.35;31.90;;;;;;;2.92;74.66;98777.88;5089735;28;20008;-70
2022/04/27 03:02:30;;;;;;;68.78;33.17;;;;;;;2.94;74.83;98783.88;5089565;28;20062;-70
2022/04/27 03:04:56;;;;;;;75.25;35.67;;;;;;;2.96;74.45;98781.75;5089438;28;20020;-70
2022/04/27 03:07:21;;;;;;;64.90;33.22;;;;;;;2.96;74.63;98776.34;5085357;28;20020;-70
2022/04/27 03:09:47;;;;;;;64.82;33.25;;;;;;;2.94;74.32;98786.59;5089392;28;20141;-70
2022/04/27 03:12:12;;;;;;;66.40;34.35;;;;;;;2.94;74.53;98785.75;5089623;28;20077;-69
2022/04/27 03:14:38;;;;;;;68.30;34.42;;;;;;;2.92;74.54;98786.00;5090677;28;20030;-70
2022/04/27 03:17:03;;;;;;;73.80;36.40;;;;;;;2.93;74.60;98793.06;5089362;28;20047;-70
2022/04/27 03:19:29;;;;;;;70.88;34.20;;;;;;;2.92;74.59;98777.03;5088909;28;20020;-70
2022/04/27 03:21:55;;;;;;;76.60;37.30;;;;;;;2.90;74.17;98790.00;5089880;28;20381;-69
2022/04/27 03:24:20;;;;;;;77.85;36.95;;;;;;;2.91;74.43;98797.06;5092387;28;20020;-70
2022/04/27 03:26:47;;;;;;;78.82;38.42;;;;;;;2.92;74.33;98791.41;5092411;28;20123;-70
2022/04/27 03:29:15;;;;;;;76.03;38.15;;;;;;;2.93;75.20;98798.47;5093277;28;20024;-70
2022/04/27 03:31:41;;;;;;;75.78;37.33;;;;;;;2.92;74.28;98787.88;5092345;28;20055;-70
2022/04/27 03:34:07;;;;;;;70.15;34.92;;;;;;;2.93;74.35;98798.47;5093502;28;20027;-70
2022/04/27 03:36:32;;;;;;;71.85;35.58;;;;;;;2.91;75.09;98789.75;5092334;28;20539;-69
2022/04/27 03:38:59;;;;;;;72.35;33.92;;;;;;;2.89;74.23;98791.88;5092909;28;20435;-69
2022/04/27 03:41:26;;;;;;;72.88;35.85;;;;;;;2.88;74.99;98792.09;5091088;28;20020;-69
2022/04/27 03:43:52;;;;;;;69.90;35.38;;;;;;;2.87;74.95;98795.88;5094918;28;20435;-69
2022/04/27 03:46:19;;;;;;;71.82;36.15;;;;;;;2.90;75.21;98807.09;5094774;28;20048;-70
2022/04/27 03:48:45;;;;;;;73.68;36.30;;;;;;;2.91;75.15;98800.59;5094460;28;20032;-69
2022/04/27 03:51:10;;;;;;;77.18;37.30;;;;;;;2.94;74.52;98802.84;5094186;28;20081;-70
2022/04/27 03:53:36;;;;;;;83.72;39.53;;;;;;;2.97;74.44;98801.53;5093903;28;20119;-69
2022/04/27 03:56:02;;;;;;;84.32;40.63;;;;;;;2.95;74.75;98806.34;5094208;28;20543;-70
2022/04/27 03:58:27;;;;;;;93.60;43.15;;;;;;;2.98;74.64;98804.00;5094398;28;20074;-70
2022/04/27 04:00:52;;;;;;;78.43;39.58;;;;;;;2.99;75.00;98810.25;5092598;28;20039;-70
2022/04/27 04:03:18;;;;;;;87.72;41.30;;;;;;;3.02;74.32;98811.66;5093398;28;20020;-70
2022/04/27 04:05:43;;;;;;;75.63;38.90;;;;;;;3.03;74.74;98816.03;5091849;28;20102;-70
2022/04/27 04:08:09;;;;;;;94.78;42.47;;;;;;;3.06;75.27;98815.53;5092536;28;20055;-70
2022/04/27 04:10:35;;;;;;;89.63;41.75;;;;;;;3.12;75.25;98823.53;5092109;28;20382;-70
2022/04/27 04:13:00;;;;;;;103.75;46.65;;;;;;;3.23;74.90;98824.56;5091568;28;20024;-70
2022/04/27 04:15:26;;;;;;;98.60;46.55;;;;;;;3.33;75.29;98818.53;5092809;28;20032;-70
2022/04/27 04:17:51;;;;;;;115.68;51.03;;;;;;;3.38;74.86;98829.50;5093784;28;20027;-70
2022/04/27 04:20:17;;;;;;;90.63;45.00;;;;;;;3.40;75.00;98829.25;5094261;28;20134;-70
2022/04/27 04:22:44;;;;;;;91.22;43.25;;;;;;;3.42;75.21;98829.84;5094438;28;20031;-70
2022/04/27 04:30:40;;;;;;;96.85;47.35;;;;;;;3.52;75.71;98834.66;5094560;28;20047;-70
2022/04/27 04:33:06;;;;;;;107.32;54.25;;;;;;;3.63;76.08;98838.38;5093735;28;20024;-70
2022/04/27 04:35:32;;;;;;;106.80;50.50;;;;;;;3.72;76.08;98840.47;5093876;28;20035;-70
2022/04/27 04:37:57;;;;;;;103.28;51.22;;;;;;;3.79;75.36;98840.34;5093625;28;20385;-70
2022/04/27 04:40:23;;;;;;;109.57;54.80;;;;;;;3.83;75.84;98844.22;5093812;28;20020;-71
2022/04/27 04:42:48;;;;;;;112.38;57.33;;;;;;;3.93;76.49;98842.75;5093722;28;20019;-70
2022/04/27 04:45:14;;;;;;;102.38;51.70;;;;;;;4.02;76.26;98844.00;5093711;28;20044;-70
2022/04/27 04:47:42;;;;;;;120.65;57.10;;;;;;;4.06;76.03;98850.59;5092226;28;20138;-70
2022/04/27 04:50:08;;;;;;;121.15;57.58;;;;;;;4.15;75.67;98848.28;5093237;28;20024;-70
2022/04/27 04:52:34;;;;;;;113.20;56.22;;;;;;;4.16;75.72;98850.78;5093192;28;20038;-71
2022/04/27 04:54:59;;;;;;;122.68;60.45;;;;;;;4.23;75.76;98852.53;5093238;28;20102;-70
2022/04/27 04:57:24;;;;;;;123.35;61.00;;;;;;;4.29;76.37;98851.50;5093490;28;20058;-71
2022/04/27 04:59:50;;;;;;;144.80;70.07;;;;;;;4.32;76.08;98854.59;5093646;28;20363;-70
2022/04/27 05:02:16;;;;;;;149.43;71.60;;;;;;;4.39;75.75;98861.75;5091850;28;20032;-70
2022/04/27 05:04:41;;;;;;;133.35;63.60;;;;;;;4.43;76.33;98869.16;5090386;28;20123;-69
2022/04/27 05:07:07;;;;;;;144.07;65.45;;;;;;;4.47;76.27;98862.16;5091085;28;20043;-70
2022/04/27 05:09:32;;;;;;;166.98;72.85;;;;;;;4.59;76.17;98874.84;5091953;28;20663;-69
2022/04/27 05:11:58;;;;;;;159.10;70.45;;;;;;;4.67;76.42;98871.72;5091838;28;20062;-70
2022/04/27 05:14:23;;;;;;;120.00;55.80;;;;;;;4.73;75.64;98869.91;5092289;28;20147;-70
2022/04/27 05:16:49;;;;;;;253.88;97.68;;;;;;;4.79;75.87;98874.34;5092266;28;20027;-69
2022/04/27 05:19:14;;;;;;;141.75;63.38;;;;;;;4.88;76.26;98883.75;5091340;28;20151;-70
2022/04/27 05:21:40;;;;;;;128.38;61.45;;;;;;;4.97;76.80;98875.97;5090256;28;20032;-70
2022/04/27 05:24:05;;;;;;;130.05;59.10;;;;;;;5.05;76.15;98883.72;5089148;28;20462;-70
2022/04/27 05:26:31;;;;;;;121.82;54.85;;;;;;;5.10;76.40;98880.25;5090838;28;20474;-69
2022/04/27 05:31:57;;;;;;;100.03;44.10;;;;;;;5.26;76.54;98894.06;5092359;28;20035;-70
2022/04/27 05:34:24;;;;;;;97.70;46.63;;;;;;;5.35;76.82;98892.53;5092134;28;20032;-69
2022/04/27 05:36:50;;;;;;;138.70;55.92;;;;;;;5.44;76.95;98891.03;5092617;28;20101;-70
2022/04/27 05:39:16;;;;;;;102.03;45.75;;;;;;;5.54;76.46;98889.53;5092025;28;20466;-70
2022/04/27 05:41:41;;;;;;;100.30;45.22;;;;;;;5.62;77.07;98892.63;5090871;28;20074;-70
2022/04/27 05:44:09;;;;;;;96.53;44.75;;;;;;;5.71;76.72;98895.72;5090893;28;20448;-69
2022/04/27 05:46:35;;;;;;;101.57;44.60;;;;;;;5.79;76.70;98891.75;5091021;28;20042;-70
2022/04/27 05:49:01;;;;;;;72.72;37.22;;;;;;;5.88;76.36;98895.69;5090414;28;20062;-70
2022/04/27 05:51:26;;;;;;;91.45;42.92;;;;;;;5.97;76.83;98904.22;5094344;28;20028;-70
2022/04/27 05:53:52;;;;;;;106.68;49.00;;;;;;;6.05;76.92;98895.63;5092212;28;20394;-70
2022/04/27 05:56:19;;;;;;;120.50;51.22;;;;;;;6.15;76.66;98897.63;5092043;28;20048;-69
2022/04/27 05:58:44;;;;;;;87.22;40.35;;;;;;;6.24;76.21;98892.53;5091633;28;20039;-69
2022/04/27 06:01:11;;;;;;;87.35;42.35;;;;;;;6.30;76.02;98902.41;5088223;28;20016;-69
2022/04/27 06:03:38;;;;;;;84.38;39.63;;;;;;;6.38;76.58;98899.22;5089844;28;20103;-69
2022/04/27 06:06:03;;;;;;;82.28;39.67;;;;;;;6.47;76.59;98907.75;5089517;28;20038;-70
2022/04/27 06:08:29;;;;;;;71.90;37.25;;;;;;;6.57;76.58;98917.09;5088911;28;20028;-70
2022/04/27 06:10:54;;;;;;;67.35;35.90;;;;;;;6.67;76.46;98917.19;5090645;28;20012;-69
2022/04/27 06:13:19;;;;;;;62.60;32.88;;;;;;;6.76;76.35;98910.16;5071424;28;20409;-69
2022/04/27 06:15:45;;;;;;;61.25;33.25;;;;;;;6.87;76.32;98912.97;5089683;28;20039;-69
2022/04/27 06:18:10;;;;;;;69.53;35.40;;;;;;;6.95;76.28;98910.59;5090097;28;20107;-70
2022/04/27 06:20:36;;;;;;;65.13;33.92;;;;;;;7.06;76.08;98916.13;5089804;28;20027;-69
2022/04/27 06:23:01;;;;;;;57.88;32.65;;;;;;;7.18;76.14;98916.75;5088883;28;20035;-69
2022/04/27 06:25:26;;;;;;;52.80;30.40;;;;;;;7.31;76.00;98915.47;5089736;28;20746;-69
2022/04/27 06:27:52;;;;;;;49.97;27.45;;;;;;;7.44;76.14;98917.75;5089778;28;20495;-69
2022/04/27 06:30:18;;;;;;;52.65;28.83;;;;;;;7.56;75.67;98925.72;5088068;28;20040;-69
2022/04/27 06:32:43;;;;;;;52.13;27.60;;;;;;;7.66;75.78;98921.41;5089990;28;20470;-70
2022/04/27 06:35:12;;;;;;;51.15;28.13;;;;;;;7.76;75.42;98918.69;5089641;28;20501;-70
2022/04/27 06:37:41;;;;;;;48.03;26.20;;;;;;;7.85;75.03;98922.56;5090467;28;20087;-71
2022/04/27 06:40:08;;;;;;;50.25;27.33;;;;;;;7.95;75.50;98923.72;5090611;28;20079;-70
2022/04/27 06:42:35;;;;;;;55.10;29.02;;;;;;;8.02;74.93;98921.56;5089154;28;20031;-71
2022/04/27 06:45:04;;;;;;;43.22;25.42;;;;;;;8.13;75.12;98925.13;5088179;28;20036;-69
2022/04/27 06:47:29;;;;;;;48.58;26.10;;;;;;;8.27;74.92;98926.28;5089656;28;20508;-69
2022/04/27 06:49:55;;;;;;;62.38;34.35;;;;;;;8.40;74.47;98922.19;5090265;28;20016;-70
2022/04/27 06:52:20;;;;;;;77.05;40.17;;;;;;;8.54;74.42;98929.91;5090386;28;20021;-70
2022/04/27 06:54:46;;;;;;;72.65;38.05;;;;;;;8.66;74.23;98937.84;5088269;28;20077;-69
2022/04/27 06:57:11;;;;;;;67.80;36.85;;;;;;;8.77;73.84;98934.00;5090214;28;20027;-70
2022/04/27 06:59:37;;;;;;;70.32;38.03;;;;;;;8.87;73.44;98935.97;5088103;28;20024;-70
2022/04/27 07:02:03;;;;;;;55.42;31.23;;;;;;;8.94;73.20;98926.38;5089695;28;20028;-69
2022/04/27 07:04:31;;;;;;;59.78;32.65;;;;;;;9.03;71.55;98925.81;5088596;28;20081;-69
2022/04/27 07:06:57;;;;;;;56.17;31.30;;;;;;;9.09;72.50;98928.28;5089100;28;20032;-70
2022/04/27 07:09:23;;;;;;;53.30;29.17;;;;;;;9.18;71.72;98931.25;5089850;28;20041;-68
2022/04/27 07:11:48;;;;;;;52.88;30.33;;;;;;;9.31;72.34;98929.06;5088071;28;20031;-70
2022/04/27 07:14:16;;;;;;;44.80;25.40;;;;;;;9.41;71.51;98936.44;5089402;28;20036;-70
2022/04/27 07:16:42;;;;;;;41.17;22.05;;;;;;;9.51;71.31;98926.31;5090728;28;20450;-71
2022/04/27 07:19:08;;;;;;;28.85;17.00;;;;;;;9.62;70.84;98937.22;5089635;28;20037;-71
2022/04/27 07:21:33;;;;;;;26.33;16.23;;;;;;;9.76;71.45;98924.56;5087339;28;20115;-70
2022/04/27 07:24:02;;;;;;;28.15;15.25;;;;;;;9.92;70.08;98932.75;5088159;28;20032;-70
2022/04/27 07:26:28;;;;;;;26.42;15.13;;;;;;;10.05;70.39;98931.31;5088024;28;20477;-70
2022/04/27 07:28:55;;;;;;;20.70;13.40;;;;;;;10.17;70.29;98934.56;5088815;28;20028;-70
2022/04/27 07:31:21;;;;;;;23.48;13.98;;;;;;;10.29;70.03;98947.94;5089173;28;20105;-67
2022/04/27 07:33:46;;;;;;;25.00;14.35;;;;;;;10.41;69.89;98937.44;5086894;28;20111;-69
2022/04/27 07:36:12;;;;;;;23.13;13.90;;;;;;;10.45;68.14;98940.47;5084809;28;20016;-70
2022/04/27 07:38:38;;;;;;;19.83;12.07;;;;;;;10.54;68.42;98946.16;5087228;28;20035;-69
2022/04/27 07:41:04;;;;;;;20.70;12.75;;;;;;;10.68;68.40;98949.06;5090313;28;20028;-68
2022/04/27 07:43:30;;;;;;;20.52;13.02;;;;;;;10.81;68.23;98948.44;5087056;28;20032;-69
2022/04/27 07:45:55;;;;;;;20.10;12.07;;;;;;;10.95;67.84;98956.84;5087961;28;20044;-69
2022/04/27 07:48:21;;;;;;;21.75;13.55;;;;;;;11.06;67.37;98957.56;5088844;28;20063;-69
2022/04/27 07:50:46;;;;;;;20.85;12.90;;;;;;;11.10;67.73;98957.84;5087605;28;20555;-69
2022/04/27 07:53:11;;;;;;;20.20;12.82;;;;;;;11.21;67.05;98964.84;5088032;28;20503;-70
2022/04/27 07:55:37;;;;;;;25.67;14.70;;;;;;;11.31;66.31;98959.28;5089765;28;20414;-70
2022/04/27 07:58:03;;;;;;;26.42;14.80;;;;;;;11.31;65.26;98962.03;5091139;28;20031;-70
2022/04/27 08:00:29;;;;;;;26.17;15.20;;;;;;;11.34;65.56;98962.56;5090138;28;20036;-70
2022/04/27 08:02:55;;;;;;;26.83;15.48;;;;;;;11.34;65.46;98965.31;5091627;28;20050;-68
2022/04/27 08:05:20;;;;;;;23.42;14.68;;;;;;;11.41;65.18;98963.03;5092300;28;20463;-69
2022/04/27 08:07:46;;;;;;;28.42;16.10;;;;;;;11.54;65.84;98961.53;5092592;28;20047;-71
2022/04/27 08:10:14;;;;;;;27.75;16.05;;;;;;;11.70;65.51;98964.94;5093617;28;20371;-71
2022/04/27 08:12:43;;;;;;;24.75;14.48;;;;;;;11.88;65.14;98955.13;5091910;28;20038;-69
2022/04/27 08:15:10;;;;;;;23.25;14.00;;;;;;;12.05;64.72;98965.66;5093581;28;20050;-69
2022/04/27 08:17:48;;;;;;;26.63;15.27;;;;;;;12.19;64.72;98963.84;5091845;28;20023;-68
2022/04/27 08:22:58;;;;;;;23.35;13.70;;;;;;;12.45;63.33;98970.94;5092636;28;20035;-69
2022/04/27 08:25:23;;;;;;;22.50;13.95;;;;;;;12.53;63.00;98964.78;5092726;28;20024;-69
2022/04/27 08:27:50;;;;;;;22.95;12.82;;;;;;;12.65;62.84;98962.38;5092430;28;20105;-69
2022/04/27 08:30:15;;;;;;;27.33;16.45;;;;;;;12.75;59.70;98971.63;5095575;28;20024;-69
2022/04/27 08:32:41;;;;;;;25.38;15.85;;;;;;;12.72;60.41;98970.28;5093388;28;20153;-69
2022/04/27 08:35:07;;;;;;;24.02;14.48;;;;;;;12.74;60.01;98965.31;5094578;28;20035;-69
2022/04/27 08:37:32;;;;;;;22.45;13.95;;;;;;;12.75;59.47;98966.94;5094643;28;20031;-70
2022/04/27 08:39:59;;;;;;;19.83;12.50;;;;;;;12.80;58.05;98966.88;5091209;28;20031;-69
2022/04/27 08:42:24;;;;;;;22.63;14.27;;;;;;;12.89;59.68;98967.00;5093560;28;20028;-69
2022/04/27 08:44:50;;;;;;;25.38;14.63;;;;;;;12.99;60.02;98968.78;5093377;28;20027;-70
2022/04/27 08:47:15;;;;;;;23.63;13.35;;;;;;;13.10;59.59;98967.50;5093395;28;20038;-69
2022/04/27 08:49:41;;;;;;;24.80;13.48;;;;;;;13.19;58.04;98975.09;5093090;28;20031;-69
2022/04/27 08:52:10;;;;;;;24.85;14.82;;;;;;;13.25;55.25;98971.09;5092170;28;20575;-70
2022/04/27 08:54:36;;;;;;;26.23;16.38;;;;;;;13.28;55.64;98966.94;5093760;28;20360;-69
2022/04/27 08:57:04;;;;;;;17.92;11.52;;;;;;;13.31;57.14;98967.13;5093536;28;20116;-67
2022/04/27 08:59:29;;;;;;;18.95;12.23;;;;;;;13.35;57.79;98970.94;5093137;28;20394;-68
2022/04/27 09:01:55;;;;;;;12.82;8.40;;;;;;;13.48;57.29;98972.09;5093479;28;20035;-68
2022/04/27 09:04:20;;;;;;;16.17;8.65;;;;;;;13.63;56.43;98971.03;5092138;28;20482;-68
2022/04/27 09:06:47;;;;;;;14.20;8.88;;;;;;;13.69;56.76;98972.56;5093005;28;20078;-67
2022/04/27 09:09:36;;;;;;;12.85;7.85;;;;;;;13.68;55.84;98973.66;5092920;28;20486;-68
2022/04/27 09:12:08;;;;;;;11.35;6.97;;;;;;;13.59;55.31;98977.44;5092124;28;20030;-67
2022/04/27 09:14:38;;;;;;;10.60;7.00;;;;;;;13.55;55.91;98969.78;5092888;28;20497;-68
2022/04/27 09:22:45;;;;;;;10.68;7.50;;;;;;;13.93;56.00;98971.56;5087284;28;20047;-67
2022/04/27 09:25:10;;;;;;;8.90;6.10;;;;;;;14.17;54.85;98964.19;5087529;28;20107;-68
2022/04/27 09:27:35;;;;;;;8.75;6.00;;;;;;;14.38;54.41;98970.91;5091420;28;20171;-68
2022/04/27 09:30:04;;;;;;;9.50;6.30;;;;;;;14.45;53.48;98976.03;5089622;28;20028;-68
2022/04/27 09:32:30;;;;;;;10.00;7.43;;;;;;;14.38;51.82;98972.88;5090368;28;20039;-67
2022/04/27 09:34:57;;;;;;;10.57;6.93;;;;;;;14.32;52.25;98965.81;5091958;28;20410;-68
2022/04/27 09:37:30;;;;;;;9.30;6.15;;;;;;;14.48;53.21;98966.31;5091327;28;20047;-67
2022/04/27 09:40:07;;;;;;;10.63;6.25;;;;;;;14.62;54.09;98963.50;5089654;28;20036;-68
2022/04/27 09:42:35;;;;;;;7.25;5.53;;;;;;;14.71;53.77;98956.16;5085033;28;20606;-69
2022/04/27 09:45:21;;;;;;;10.38;6.75;;;;;;;14.69;52.43;98952.88;5090183;28;20298;-68
2022/04/27 09:48:01;;;;;;;9.90;7.00;;;;;;;14.72;52.32;98952.25;5088795;28;20046;-66
2022/04/27 09:50:27;;;;;;;;;;;;;;;14.79;53.51;98957.34;5088719;28;20374;-68
2022/04/27 09:52:55;;;;;;;10.73;7.32;;;;;;;14.82;52.14;98956.72;5090591;28;19965;-68
2022/04/27 09:55:22;;;;;;;10.70;7.47;;;;;;;14.76;52.45;98958.78;5091120;28;20475;-69
2022/04/27 09:57:57;;;;;;;8.68;6.60;;;;;;;14.71;51.40;98956.16;5090682;28;20103;-70
2022/04/27 10:00:25;;;;;;;10.05;6.57;;;;;;;14.63;51.55;98957.69;5091365;28;20030;-68
2022/04/27 10:02:50;;;;;;;9.13;5.88;;;;;;;14.71;52.35;98956.16;5090818;28;20016;-69
2022/04/27 10:05:16;;;;;;;8.20;5.85;;;;;;;14.88;53.21;98948.00;5089368;28;20089;-69
2022/04/27 10:07:42;;;;;;;9.68;5.97;;;;;;;15.10;52.33;98951.06;5089108;28;20672;-69
2022/04/27 10:10:08;;;;;;;7.85;5.88;;;;;;;15.26;52.66;98943.25;5089954;28;20028;-68
2022/04/27 10:12:38;;;;;;;10.05;6.78;;;;;;;15.27;50.94;98959.50;5095106;28;20031;-69
2022/04/27 10:15:05;;;;;;;8.32;5.80;;;;;;;15.32;51.01;98953.84;5089915;28;20039;-67
2022/04/27 10:17:31;;;;;;;9.18;6.20;;;;;;;15.39;49.02;98956.13;5089724;28;20051;-68
2022/04/27 10:19:57;;;;;;;10.73;6.35;;;;;;;15.33;47.95;98949.94;5088869;28;20024;-67
2022/04/27 10:22:33;;;;;;;8.00;5.47;;;;;;;15.30;48.69;98947.81;5090926;28;20035;-68
2022/04/27 10:25:19;;;;;;;10.30;6.57;;;;;;;15.35;48.91;98952.38;5090749;28;20032;-68
2022/04/27 10:27:45;;;;;;;7.95;4.93;;;;;;;15.38;48.91;98945.41;5088464;28;20052;-69
2022/04/27 10:30:12;;;;;;;9.43;5.20;;;;;;;15.38;48.43;98951.75;5089264;28;20050;-69
2022/04/27 10:32:41;;;;;;;7.50;4.25;;;;;;;15.38;47.37;98950.94;5083818;28;20031;-68
2022/04/27 10:35:12;;;;;;;8.98;4.97;;;;;;;15.35;48.14;98946.84;5090174;28;20115;-68
2022/04/27 10:38:07;;;;;;;7.05;4.65;;;;;;;15.37;48.83;98944.59;5084715;28;20482;-68
2022/04/27 10:40:35;;;;;;;6.75;4.57;;;;;;;15.40;47.90;98948.69;5084644;28;20040;-68
2022/04/27 10:43:15;;;;;;;8.65;5.35;;;;;;;15.38;47.77;98956.47;5087101;28;20024;-68
2022/04/27 10:45:45;;;;;;;7.18;4.30;;;;;;;15.34;47.77;98950.75;5088016;28;20501;-69
2022/04/27 10:48:15;;;;;;;;;;;;;;;15.20;47.67;98966.59;5087756;28;20070;-67
2022/04/27 10:50:53;;;;;;;;;;;;;;;15.02;47.62;98956.25;5087571;28;19916;-70
2022/04/27 10:53:24;;;;;;;8.90;5.97;;;;;;;14.96;47.86;98951.97;5087273;28;19959;-69
2022/04/27 10:55:53;;;;;;;11.20;6.53;;;;;;;14.93;48.23;98960.03;5083401;28;20053;-69
2022/04/27 10:58:32;;;;;;;9.02;6.03;;;;;;;14.92;48.85;98962.00;5083454;28;20028;-68
2022/04/27 11:00:58;;;;;;;14.32;9.18;;;;;;;14.94;48.92;98967.22;5087496;28;20036;-68
2022/04/27 11:03:25;;;;;;;9.05;6.45;;;;;;;14.99;48.77;98965.16;5086638;28;20042;-67
2022/04/27 11:05:51;;;;;;;9.27;5.28;;;;;;;15.05;48.78;98967.81;5088917;28;20043;-66
2022/04/27 11:08:26;;;;;;;16.05;9.60;;;;;;;15.16;48.68;98967.22;5088529;28;20139;-68
2022/04/27 11:11:02;;;;;;;11.95;7.53;;;;;;;15.35;49.06;98957.09;5087413;28;20154;-69
2022/04/27 11:13:31;;;;;;;7.22;5.75;;;;;;;15.65;49.58;98960.19;5116508;27;20477;-68
2022/04/27 11:16:10;;;;;;;10.85;7.20;;;;;;;16.09;49.36;98946.56;5088138;28;20057;-70
2022/04/27 11:18:57;;;;;;;8.43;5.60;;;;;;;16.45;48.78;98949.06;5086419;28;20180;-70
2022/04/27 11:21:25;;;;;;;8.88;6.63;;;;;;;16.67;49.48;98955.63;5088152;28;20110;-69
2022/04/27 11:23:51;;;;;;;7.05;5.88;;;;;;;16.78;49.36;98950.56;5089313;28;20024;-69
2022/04/27 11:26:17;;;;;;;5.47;4.68;;;;;;;16.82;49.29;98954.31;5089092;28;20109;-71
2022/04/27 11:28:44;;;;;;;8.35;5.53;;;;;;;16.69;47.32;98956.13;5087267;28;20123;-68
2022/04/27 11:31:13;;;;;;;7.63;5.35;;;;;;;16.36;47.25;98960.13;5087867;28;20490;-68
2022/04/27 11:33:40;;;;;;;6.95;4.70;;;;;;;16.18;48.03;98956.53;5086496;28;20070;-67
2022/04/27 11:36:27;;;;;;;6.45;4.65;;;;;;;15.98;47.52;98951.56;5084816;28;20036;-68
2022/04/27 11:38:54;;;;;;;6.05;3.90;;;;;;;15.74;45.33;98961.03;5084976;28;20028;-68
2022/04/27 11:41:23;;;;;;;5.47;3.22;;;;;;;15.48;45.72;98958.97;5088761;28;20030;-68
2022/04/27 11:43:55;;;;;;;4.07;3.00;;;;;;;15.18;45.03;98951.16;5093112;28;20058;-68
2022/04/27 11:46:21;;;;;;;5.93;4.32;;;;;;;14.86;45.37;98955.81;5090891;28;20039;-69